Rechercher aéroport 
image banner adimage banner adimage banner ad
image banner ad

49CL - El Peco Ranch

Situé à Madera, United States

ICAO - 49CL, IATA -

Données fournies par Airmate  

Information générale

Coordonnées: N36°54'20" W120°10'39"
Élévation : 213 feet MSL.
Variation magnétique : 15° East
Voir autres Aéroports à California

Données opérationnelles

Special qualification required
Heure actuelle UTC:
Heure actuelle locale:
Météo à : KMAE - Madera Muni ( 11 km )
METAR: KMAE 020553Z AUTO 31009G20KT 10SM CLR 27/13 A2998 RMK AO2 SLP148 T02670128 10400 20261 51018
Voir NOTAMs / SUP AIP / TFR affectant cet aéroport [VIEW]
Fréquences de communication: [VIEW]

Pistes:

Identifiant RWYQFULongueur (ft)Largeur (ft)SurfaceLDA (ft)
NW300050OTHER
SE300050OTHER

Coordonnées de l'aéroport

Adresse: Madera United States

Vue satellite de 49CL